Yakutsk, Russia
Current Conditions -  °F | °C
As of 12:30 PM on Friday 31 Oct 2014 (Local Time) from UEEE Reporting Station
Overcast Overcast  
Wind Chill:   Ceiling: 20000
Heat Index:   Visibility: 6mi
Dew Point:   Wind: 2mph
Humidity: 85%   Direction: 40°NE
Pressure: 29.88"   Gusts: NA
Location:  62.05°N, 129.73°E
Report Text: UEEE 310330Z 04001MPS 9999 SCT033 OVC200 M16/M18 Q1012 NOSIGRMK QFE750 23490245
Loading
Personal Weather Stations






























Interactive Weather Map
Tropical Storm Tracking
New forecast layout! Learn more

10-Day Weather Forecast

Advertisements
Track Severe Weather on mobile